sensor_id;sensor_type;location;lat;lon;timestamp;P1;durP1;ratioP1;P2;durP2;ratioP2
76597;SDS011;65486;53.144;18.134;2022-12-18T00:01:31;58.30;;;15.40;;
76597;SDS011;65486;53.144;18.134;2022-12-18T00:04:01;69.50;;;19.60;;
76597;SDS011;65486;53.144;18.134;2022-12-18T00:06:32;57.70;;;18.70;;
76597;SDS011;65486;53.144;18.134;2022-12-18T00:08:59;26.30;;;8.00;;
76597;SDS011;65486;53.144;18.134;2022-12-18T00:11:29;50.50;;;17.10;;
76597;SDS011;65486;53.144;18.134;2022-12-18T00:14:03;43.30;;;14.80;;
76597;SDS011;65486;53.144;18.134;2022-12-18T00:16:31;50.00;;;16.40;;
76597;SDS011;65486;53.144;18.134;2022-12-18T00:18:59;37.90;;;12.00;;
76597;SDS011;65486;53.144;18.134;2022-12-18T00:21:27;60.00;;;19.90;;
76597;SDS011;65486;53.144;18.134;2022-12-18T00:23:55;73.30;;;20.30;;
76597;SDS011;65486;53.144;18.134;2022-12-18T00:26:24;57.90;;;15.80;;
76597;SDS011;65486;53.144;18.134;2022-12-18T00:29:01;64.40;;;19.70;;
76597;SDS011;65486;53.144;18.134;2022-12-18T00:31:38;62.00;;;19.40;;
76597;SDS011;65486;53.144;18.134;2022-12-18T00:34:11;59.30;;;18.80;;
76597;SDS011;65486;53.144;18.134;2022-12-18T00:36:40;41.60;;;12.80;;
76597;SDS011;65486;53.144;18.134;2022-12-18T00:39:09;63.30;;;18.80;;
76597;SDS011;65486;53.144;18.134;2022-12-18T00:41:38;56.50;;;16.60;;
76597;SDS011;65486;53.144;18.134;2022-12-18T00:44:26;73.10;;;20.90;;
76597;SDS011;65486;53.144;18.134;2022-12-18T00:46:55;70.70;;;21.30;;
76597;SDS011;65486;53.144;18.134;2022-12-18T00:49:26;68.70;;;21.90;;
76597;SDS011;65486;53.144;18.134;2022-12-18T00:51:55;58.60;;;18.90;;
76597;SDS011;65486;53.144;18.134;2022-12-18T00:54:24;59.70;;;19.70;;
76597;SDS011;65486;53.144;18.134;2022-12-18T00:56:52;49.10;;;17.00;;
76597;SDS011;65486;53.144;18.134;2022-12-18T00:59:22;64.80;;;19.50;;
76597;SDS011;65486;53.144;18.134;2022-12-18T01:01:53;60.10;;;19.20;;
76597;SDS011;65486;53.144;18.134;2022-12-18T01:04:20;25.50;;;9.60;;
76597;SDS011;65486;53.144;18.134;2022-12-18T01:06:48;65.00;;;19.40;;
76597;SDS011;65486;53.144;18.134;2022-12-18T01:09:14;74.60;;;22.60;;
76597;SDS011;65486;53.144;18.134;2022-12-18T01:11:41;72.20;;;21.00;;
76597;SDS011;65486;53.144;18.134;2022-12-18T01:14:10;68.90;;;20.10;;
76597;SDS011;65486;53.144;18.134;2022-12-18T01:16:48;63.40;;;20.80;;
76597;SDS011;65486;53.144;18.134;2022-12-18T01:19:21;58.60;;;20.00;;
76597;SDS011;65486;53.144;18.134;2022-12-18T01:21:58;54.30;;;17.70;;
76597;SDS011;65486;53.144;18.134;2022-12-18T01:24:32;43.80;;;14.50;;
76597;SDS011;65486;53.144;18.134;2022-12-18T01:27:00;44.80;;;13.30;;
76597;SDS011;65486;53.144;18.134;2022-12-18T01:29:27;71.20;;;21.90;;
76597;SDS011;65486;53.144;18.134;2022-12-18T01:31:55;65.80;;;19.90;;
76597;SDS011;65486;53.144;18.134;2022-12-18T01:34:25;52.10;;;18.40;;
76597;SDS011;65486;53.144;18.134;2022-12-18T01:36:52;47.50;;;15.50;;
76597;SDS011;65486;53.144;18.134;2022-12-18T01:39:20;43.30;;;14.10;;
76597;SDS011;65486;53.144;18.134;2022-12-18T01:41:48;33.30;;;10.70;;
76597;SDS011;65486;53.144;18.134;2022-12-18T01:47:29;61.50;;;18.60;;
76597;SDS011;65486;53.144;18.134;2022-12-18T01:50:11;67.00;;;17.80;;
76597;SDS011;65486;53.144;18.134;2022-12-18T01:52:51;71.10;;;20.40;;
76597;SDS011;65486;53.144;18.134;2022-12-18T01:55:22;45.40;;;13.90;;
76597;SDS011;65486;53.144;18.134;2022-12-18T01:57:55;51.10;;;14.90;;
76597;SDS011;65486;53.144;18.134;2022-12-18T02:00:26;52.30;;;16.00;;
76597;SDS011;65486;53.144;18.134;2022-12-18T02:02:56;44.80;;;14.30;;
76597;SDS011;65486;53.144;18.134;2022-12-18T02:08:16;60.00;;;15.90;;
76597;SDS011;65486;53.144;18.134;2022-12-18T02:16:21;63.70;;;18.80;;
76597;SDS011;65486;53.144;18.134;2022-12-18T02:18:53;50.40;;;16.70;;
76597;SDS011;65486;53.144;18.134;2022-12-18T02:21:45;51.00;;;16.80;;
76597;SDS011;65486;53.144;18.134;2022-12-18T02:24:52;47.20;;;16.10;;
76597;SDS011;65486;53.144;18.134;2022-12-18T02:27:33;39.50;;;13.50;;
76597;SDS011;65486;53.144;18.134;2022-12-18T02:30:04;73.70;;;20.30;;
76597;SDS011;65486;53.144;18.134;2022-12-18T02:32:35;90.70;;;22.30;;
76597;SDS011;65486;53.144;18.134;2022-12-18T02:35:07;63.00;;;20.40;;
76597;SDS011;65486;53.144;18.134;2022-12-18T02:37:43;57.20;;;18.80;;
76597;SDS011;65486;53.144;18.134;2022-12-18T02:40:17;31.80;;;10.40;;
76597;SDS011;65486;53.144;18.134;2022-12-18T02:42:47;45.40;;;11.60;;
76597;SDS011;65486;53.144;18.134;2022-12-18T02:45:15;24.60;;;8.90;;
76597;SDS011;65486;53.144;18.134;2022-12-18T02:47:43;50.70;;;15.40;;
76597;SDS011;65486;53.144;18.134;2022-12-18T03:01:49;25.10;;;9.20;;
76597;SDS011;65486;53.144;18.134;2022-12-18T03:05:01;46.90;;;14.80;;
76597;SDS011;65486;53.144;18.134;2022-12-18T03:07:39;59.80;;;16.90;;
76597;SDS011;65486;53.144;18.134;2022-12-18T03:10:13;53.80;;;17.40;;
76597;SDS011;65486;53.144;18.134;2022-12-18T03:12:45;40.30;;;13.80;;
76597;SDS011;65486;53.144;18.134;2022-12-18T03:15:31;36.50;;;11.90;;
76597;SDS011;65486;53.144;18.134;2022-12-18T03:18:13;33.20;;;12.60;;
76597;SDS011;65486;53.144;18.134;2022-12-18T03:20:51;35.70;;;12.30;;
76597;SDS011;65486;53.144;18.134;2022-12-18T03:23:24;39.80;;;14.60;;
76597;SDS011;65486;53.144;18.134;2022-12-18T03:25:56;48.50;;;14.70;;
76597;SDS011;65486;53.144;18.134;2022-12-18T03:28:27;51.50;;;16.30;;
76597;SDS011;65486;53.144;18.134;2022-12-18T03:31:00;41.70;;;15.50;;
76597;SDS011;65486;53.144;18.134;2022-12-18T03:33:32;39.10;;;13.20;;
76597;SDS011;65486;53.144;18.134;2022-12-18T03:36:04;40.40;;;14.00;;
76597;SDS011;65486;53.144;18.134;2022-12-18T03:38:35;37.20;;;13.20;;
76597;SDS011;65486;53.144;18.134;2022-12-18T03:41:13;21.60;;;7.70;;
76597;SDS011;65486;53.144;18.134;2022-12-18T03:44:41;36.40;;;12.10;;
76597;SDS011;65486;53.144;18.134;2022-12-18T03:47:20;48.40;;;15.30;;
76597;SDS011;65486;53.144;18.134;2022-12-18T03:52:46;40.80;;;14.80;;
76597;SDS011;65486;53.144;18.134;2022-12-18T03:55:18;41.40;;;15.40;;
76597;SDS011;65486;53.144;18.134;2022-12-18T03:57:51;46.40;;;21.60;;
76597;SDS011;65486;53.144;18.134;2022-12-18T04:00:22;38.20;;;14.50;;
76597;SDS011;65486;53.144;18.134;2022-12-18T04:03:00;33.10;;;12.40;;
76597;SDS011;65486;53.144;18.134;2022-12-18T04:05:35;25.80;;;9.60;;
76597;SDS011;65486;53.144;18.134;2022-12-18T04:08:04;36.90;;;14.00;;
76597;SDS011;65486;53.144;18.134;2022-12-18T04:10:33;48.10;;;17.30;;
76597;SDS011;65486;53.144;18.134;2022-12-18T04:13:01;54.10;;;16.20;;
76597;SDS011;65486;53.144;18.134;2022-12-18T04:15:29;49.40;;;16.70;;
76597;SDS011;65486;53.144;18.134;2022-12-18T04:17:56;39.00;;;15.30;;
76597;SDS011;65486;53.144;18.134;2022-12-18T04:20:25;37.10;;;13.90;;
76597;SDS011;65486;53.144;18.134;2022-12-18T04:22:55;38.10;;;13.70;;
76597;SDS011;65486;53.144;18.134;2022-12-18T04:25:26;28.60;;;10.50;;
76597;SDS011;65486;53.144;18.134;2022-12-18T04:28:04;37.80;;;14.00;;
76597;SDS011;65486;53.144;18.134;2022-12-18T04:30:32;37.80;;;13.30;;
76597;SDS011;65486;53.144;18.134;2022-12-18T04:32:59;32.50;;;12.40;;
76597;SDS011;65486;53.144;18.134;2022-12-18T04:35:29;56.70;;;19.30;;
76597;SDS011;65486;53.144;18.134;2022-12-18T04:37:59;67.20;;;19.60;;
76597;SDS011;65486;53.144;18.134;2022-12-18T04:40:31;43.60;;;15.50;;
76597;SDS011;65486;53.144;18.134;2022-12-18T04:43:04;39.40;;;14.10;;
76597;SDS011;65486;53.144;18.134;2022-12-18T04:45:39;37.40;;;14.60;;
76597;SDS011;65486;53.144;18.134;2022-12-18T04:48:14;31.40;;;12.20;;
76597;SDS011;65486;53.144;18.134;2022-12-18T04:50:43;35.00;;;12.50;;
76597;SDS011;65486;53.144;18.134;2022-12-18T04:53:10;39.60;;;13.20;;
76597;SDS011;65486;53.144;18.134;2022-12-18T04:55:37;25.10;;;8.70;;
76597;SDS011;65486;53.144;18.134;2022-12-18T04:58:04;37.70;;;13.40;;
76597;SDS011;65486;53.144;18.134;2022-12-18T05:00:31;55.70;;;17.60;;
76597;SDS011;65486;53.144;18.134;2022-12-18T05:03:00;53.70;;;16.20;;
76597;SDS011;65486;53.144;18.134;2022-12-18T05:05:28;43.50;;;14.50;;
76597;SDS011;65486;53.144;18.134;2022-12-18T05:07:56;36.90;;;12.70;;
76597;SDS011;65486;53.144;18.134;2022-12-18T05:10:23;35.40;;;12.20;;
76597;SDS011;65486;53.144;18.134;2022-12-18T05:12:50;25.40;;;9.70;;
76597;SDS011;65486;53.144;18.134;2022-12-18T05:15:30;34.10;;;12.70;;
76597;SDS011;65486;53.144;18.134;2022-12-18T05:17:59;22.10;;;7.90;;
76597;SDS011;65486;53.144;18.134;2022-12-18T05:20:27;30.90;;;11.10;;
76597;SDS011;65486;53.144;18.134;2022-12-18T05:22:54;32.40;;;12.10;;
76597;SDS011;65486;53.144;18.134;2022-12-18T05:25:22;47.10;;;14.60;;
76597;SDS011;65486;53.144;18.134;2022-12-18T05:27:49;36.60;;;13.20;;
76597;SDS011;65486;53.144;18.134;2022-12-18T05:30:16;36.90;;;13.30;;
76597;SDS011;65486;53.144;18.134;2022-12-18T05:32:43;28.60;;;9.60;;
76597;SDS011;65486;53.144;18.134;2022-12-18T05:35:10;27.60;;;10.00;;
76597;SDS011;65486;53.144;18.134;2022-12-18T05:37:38;36.90;;;12.30;;
76597;SDS011;65486;53.144;18.134;2022-12-18T05:40:06;35.30;;;12.40;;
76597;SDS011;65486;53.144;18.134;2022-12-18T05:42:33;29.70;;;10.30;;
76597;SDS011;65486;53.144;18.134;2022-12-18T05:45:00;20.20;;;7.50;;
76597;SDS011;65486;53.144;18.134;2022-12-18T05:47:31;46.70;;;14.40;;
76597;SDS011;65486;53.144;18.134;2022-12-18T05:49:58;42.10;;;14.90;;
76597;SDS011;65486;53.144;18.134;2022-12-18T05:52:24;40.30;;;13.70;;
76597;SDS011;65486;53.144;18.134;2022-12-18T05:54:52;33.50;;;13.10;;
76597;SDS011;65486;53.144;18.134;2022-12-18T05:57:20;32.60;;;12.10;;
76597;SDS011;65486;53.144;18.134;2022-12-18T05:59:48;38.60;;;12.50;;
76597;SDS011;65486;53.144;18.134;2022-12-18T06:02:17;39.30;;;13.60;;
76597;SDS011;65486;53.144;18.134;2022-12-18T06:04:48;27.10;;;9.60;;
76597;SDS011;65486;53.144;18.134;2022-12-18T06:07:19;35.60;;;10.70;;
76597;SDS011;65486;53.144;18.134;2022-12-18T06:09:45;45.50;;;14.20;;
76597;SDS011;65486;53.144;18.134;2022-12-18T06:12:12;53.50;;;16.80;;
76597;SDS011;65486;53.144;18.134;2022-12-18T06:14:39;47.50;;;15.30;;
76597;SDS011;65486;53.144;18.134;2022-12-18T06:17:06;43.90;;;15.40;;
76597;SDS011;65486;53.144;18.134;2022-12-18T06:19:33;44.30;;;14.70;;
76597;SDS011;65486;53.144;18.134;2022-12-18T06:22:01;42.50;;;12.90;;
76597;SDS011;65486;53.144;18.134;2022-12-18T06:24:29;40.10;;;14.10;;
76597;SDS011;65486;53.144;18.134;2022-12-18T06:26:58;30.90;;;11.70;;
76597;SDS011;65486;53.144;18.134;2022-12-18T06:29:29;39.10;;;12.10;;
76597;SDS011;65486;53.144;18.134;2022-12-18T06:31:56;52.60;;;14.70;;
76597;SDS011;65486;53.144;18.134;2022-12-18T06:34:23;53.00;;;16.30;;
76597;SDS011;65486;53.144;18.134;2022-12-18T06:36:50;50.80;;;15.80;;
76597;SDS011;65486;53.144;18.134;2022-12-18T06:39:17;52.50;;;16.80;;
76597;SDS011;65486;53.144;18.134;2022-12-18T06:41:53;44.20;;;13.60;;
76597;SDS011;65486;53.144;18.134;2022-12-18T06:44:21;47.20;;;14.90;;
76597;SDS011;65486;53.144;18.134;2022-12-18T06:46:52;42.50;;;12.40;;
76597;SDS011;65486;53.144;18.134;2022-12-18T06:49:20;40.70;;;12.50;;
76597;SDS011;65486;53.144;18.134;2022-12-18T06:51:47;45.40;;;12.40;;
76597;SDS011;65486;53.144;18.134;2022-12-18T06:54:14;43.80;;;14.00;;
76597;SDS011;65486;53.144;18.134;2022-12-18T06:56:41;57.40;;;16.40;;
76597;SDS011;65486;53.144;18.134;2022-12-18T06:59:08;56.90;;;16.40;;
76597;SDS011;65486;53.144;18.134;2022-12-18T07:01:41;54.10;;;16.00;;
76597;SDS011;65486;53.144;18.134;2022-12-18T07:04:12;48.30;;;15.20;;
76597;SDS011;65486;53.144;18.134;2022-12-18T07:06:39;46.00;;;14.40;;
76597;SDS011;65486;53.144;18.134;2022-12-18T07:09:05;42.10;;;13.10;;
76597;SDS011;65486;53.144;18.134;2022-12-18T07:11:33;33.90;;;11.00;;
76597;SDS011;65486;53.144;18.134;2022-12-18T07:14:00;42.40;;;14.00;;
76597;SDS011;65486;53.144;18.134;2022-12-18T07:16:28;42.90;;;12.10;;
76597;SDS011;65486;53.144;18.134;2022-12-18T07:19:09;61.90;;;16.70;;
76597;SDS011;65486;53.144;18.134;2022-12-18T07:21:37;72.70;;;18.60;;
76597;SDS011;65486;53.144;18.134;2022-12-18T07:24:04;64.30;;;18.90;;
76597;SDS011;65486;53.144;18.134;2022-12-18T07:26:34;61.00;;;19.80;;
76597;SDS011;65486;53.144;18.134;2022-12-18T07:29:01;53.30;;;16.40;;
76597;SDS011;65486;53.144;18.134;2022-12-18T07:31:28;43.00;;;14.30;;
76597;SDS011;65486;53.144;18.134;2022-12-18T07:33:56;43.10;;;13.10;;
76597;SDS011;65486;53.144;18.134;2022-12-18T07:36:24;33.10;;;10.10;;
76597;SDS011;65486;53.144;18.134;2022-12-18T07:38:51;41.90;;;12.80;;
76597;SDS011;65486;53.144;18.134;2022-12-18T07:41:19;51.70;;;15.80;;
76597;SDS011;65486;53.144;18.134;2022-12-18T07:43:48;63.80;;;17.20;;
76597;SDS011;65486;53.144;18.134;2022-12-18T07:46:17;55.70;;;16.20;;
76597;SDS011;65486;53.144;18.134;2022-12-18T07:48:45;50.30;;;16.20;;
76597;SDS011;65486;53.144;18.134;2022-12-18T07:51:12;39.50;;;13.70;;
76597;SDS011;65486;53.144;18.134;2022-12-18T07:53:40;39.40;;;12.70;;
76597;SDS011;65486;53.144;18.134;2022-12-18T07:56:09;43.40;;;14.40;;
76597;SDS011;65486;53.144;18.134;2022-12-18T07:58:38;19.50;;;6.80;;
76597;SDS011;65486;53.144;18.134;2022-12-18T08:01:06;29.10;;;10.10;;
76597;SDS011;65486;53.144;18.134;2022-12-18T08:03:36;45.80;;;13.80;;
76597;SDS011;65486;53.144;18.134;2022-12-18T08:06:09;55.40;;;15.30;;
76597;SDS011;65486;53.144;18.134;2022-12-18T08:08:40;48.10;;;13.90;;
76597;SDS011;65486;53.144;18.134;2022-12-18T08:11:27;37.00;;;11.90;;
76597;SDS011;65486;53.144;18.134;2022-12-18T08:13:57;28.70;;;9.30;;
76597;SDS011;65486;53.144;18.134;2022-12-18T08:16:24;21.20;;;6.90;;
76597;SDS011;65486;53.144;18.134;2022-12-18T08:18:51;18.50;;;6.40;;
76597;SDS011;65486;53.144;18.134;2022-12-18T08:21:22;30.10;;;10.40;;
76597;SDS011;65486;53.144;18.134;2022-12-18T08:23:51;15.20;;;6.00;;
76597;SDS011;65486;53.144;18.134;2022-12-18T08:26:20;18.50;;;6.80;;
76597;SDS011;65486;53.144;18.134;2022-12-18T08:28:49;30.30;;;8.40;;
76597;SDS011;65486;53.144;18.134;2022-12-18T08:31:18;41.80;;;13.10;;
76597;SDS011;65486;53.144;18.134;2022-12-18T08:33:45;37.70;;;13.60;;
76597;SDS011;65486;53.144;18.134;2022-12-18T08:36:18;39.50;;;12.30;;
76597;SDS011;65486;53.144;18.134;2022-12-18T08:38:47;31.70;;;12.20;;
76597;SDS011;65486;53.144;18.134;2022-12-18T08:41:19;45.30;;;15.30;;
76597;SDS011;65486;53.144;18.134;2022-12-18T08:43:51;37.90;;;15.50;;
76597;SDS011;65486;53.144;18.134;2022-12-18T08:46:38;37.50;;;14.50;;
76597;SDS011;65486;53.144;18.134;2022-12-18T08:49:09;32.80;;;13.00;;
76597;SDS011;65486;53.144;18.134;2022-12-18T08:51:37;39.30;;;13.90;;
76597;SDS011;65486;53.144;18.134;2022-12-18T08:54:05;24.70;;;9.60;;
76597;SDS011;65486;53.144;18.134;2022-12-18T08:56:35;36.90;;;13.90;;
76597;SDS011;65486;53.144;18.134;2022-12-18T08:59:02;24.30;;;9.50;;
76597;SDS011;65486;53.144;18.134;2022-12-18T09:01:32;30.50;;;11.10;;
76597;SDS011;65486;53.144;18.134;2022-12-18T09:04:10;46.10;;;15.30;;
76597;SDS011;65486;53.144;18.134;2022-12-18T09:06:46;25.80;;;8.70;;
76597;SDS011;65486;53.144;18.134;2022-12-18T09:09:13;33.70;;;11.40;;
76597;SDS011;65486;53.144;18.134;2022-12-18T09:11:43;41.50;;;13.70;;
76597;SDS011;65486;53.144;18.134;2022-12-18T09:14:13;37.40;;;14.30;;
76597;SDS011;65486;53.144;18.134;2022-12-18T09:16:42;38.10;;;14.30;;
76597;SDS011;65486;53.144;18.134;2022-12-18T09:19:11;36.20;;;12.70;;
76597;SDS011;65486;53.144;18.134;2022-12-18T09:21:39;32.40;;;12.10;;
76597;SDS011;65486;53.144;18.134;2022-12-18T09:24:08;23.40;;;8.90;;
76597;SDS011;65486;53.144;18.134;2022-12-18T09:26:39;37.40;;;13.40;;
76597;SDS011;65486;53.144;18.134;2022-12-18T09:29:06;40.80;;;13.60;;
76597;SDS011;65486;53.144;18.134;2022-12-18T09:31:34;37.90;;;13.00;;
76597;SDS011;65486;53.144;18.134;2022-12-18T09:34:04;32.00;;;11.90;;
76597;SDS011;65486;53.144;18.134;2022-12-18T09:36:35;32.50;;;11.70;;
76597;SDS011;65486;53.144;18.134;2022-12-18T09:39:16;26.90;;;9.40;;
76597;SDS011;65486;53.144;18.134;2022-12-18T09:41:51;33.50;;;12.10;;
76597;SDS011;65486;53.144;18.134;2022-12-18T09:44:24;31.60;;;12.00;;
76597;SDS011;65486;53.144;18.134;2022-12-18T09:49:47;14.90;;;6.40;;
76597;SDS011;65486;53.144;18.134;2022-12-18T09:52:31;11.00;;;4.00;;
76597;SDS011;65486;53.144;18.134;2022-12-18T09:57:54;44.40;;;13.40;;
76597;SDS011;65486;53.144;18.134;2022-12-18T10:00:28;32.40;;;12.10;;
76597;SDS011;65486;53.144;18.134;2022-12-18T10:02:58;32.90;;;11.60;;
76597;SDS011;65486;53.144;18.134;2022-12-18T10:16:57;13.60;;;5.40;;
76597;SDS011;65486;53.144;18.134;2022-12-18T10:25:24;27.20;;;9.00;;
76597;SDS011;65486;53.144;18.134;2022-12-18T10:29:26;12.00;;;3.80;;
76597;SDS011;65486;53.144;18.134;2022-12-18T10:31:54;23.20;;;9.30;;
76597;SDS011;65486;53.144;18.134;2022-12-18T10:34:23;15.60;;;5.20;;
76597;SDS011;65486;53.144;18.134;2022-12-18T10:37:01;11.70;;;5.00;;
76597;SDS011;65486;53.144;18.134;2022-12-18T10:42:46;33.60;;;11.50;;
76597;SDS011;65486;53.144;18.134;2022-12-18T10:45:38;39.20;;;13.40;;
76597;SDS011;65486;53.144;18.134;2022-12-18T10:48:54;25.10;;;7.50;;
76597;SDS011;65486;53.144;18.134;2022-12-18T10:51:31;18.00;;;5.30;;
76597;SDS011;65486;53.144;18.134;2022-12-18T10:54:12;31.70;;;10.80;;
76597;SDS011;65486;53.144;18.134;2022-12-18T10:56:43;27.00;;;9.80;;
76597;SDS011;65486;53.144;18.134;2022-12-18T10:59:11;19.30;;;7.40;;
76597;SDS011;65486;53.144;18.134;2022-12-18T11:04:24;21.50;;;5.60;;
76597;SDS011;65486;53.144;18.134;2022-12-18T11:09:40;37.30;;;13.50;;
76597;SDS011;65486;53.144;18.134;2022-12-18T11:12:31;29.90;;;9.70;;
76597;SDS011;65486;53.144;18.134;2022-12-18T11:14:59;31.30;;;10.80;;
76597;SDS011;65486;53.144;18.134;2022-12-18T11:20:07;34.90;;;11.80;;
76597;SDS011;65486;53.144;18.134;2022-12-18T11:23:00;38.10;;;12.70;;
76597;SDS011;65486;53.144;18.134;2022-12-18T11:25:29;15.30;;;5.10;;
76597;SDS011;65486;53.144;18.134;2022-12-18T11:28:01;36.90;;;11.10;;
76597;SDS011;65486;53.144;18.134;2022-12-18T11:30:33;39.20;;;12.50;;
76597;SDS011;65486;53.144;18.134;2022-12-18T11:33:10;40.40;;;13.60;;
76597;SDS011;65486;53.144;18.134;2022-12-18T11:35:48;32.90;;;11.30;;
76597;SDS011;65486;53.144;18.134;2022-12-18T11:38:43;32.00;;;10.90;;
76597;SDS011;65486;53.144;18.134;2022-12-18T11:44:25;14.10;;;6.10;;
76597;SDS011;65486;53.144;18.134;2022-12-18T11:47:09;43.40;;;13.90;;
76597;SDS011;65486;53.144;18.134;2022-12-18T11:49:51;15.70;;;6.20;;
76597;SDS011;65486;53.144;18.134;2022-12-18T11:52:24;16.90;;;5.80;;
76597;SDS011;65486;53.144;18.134;2022-12-18T11:55:19;42.90;;;14.20;;
76597;SDS011;65486;53.144;18.134;2022-12-18T11:58:08;46.00;;;14.40;;
76597;SDS011;65486;53.144;18.134;2022-12-18T12:04:00;42.80;;;14.30;;
76597;SDS011;65486;53.144;18.134;2022-12-18T12:09:44;43.80;;;13.80;;
76597;SDS011;65486;53.144;18.134;2022-12-18T12:12:26;29.20;;;9.40;;
76597;SDS011;65486;53.144;18.134;2022-12-18T12:23:40;35.30;;;10.90;;
76597;SDS011;65486;53.144;18.134;2022-12-18T12:26:30;82.20;;;21.20;;
76597;SDS011;65486;53.144;18.134;2022-12-18T12:32:27;54.30;;;17.20;;
76597;SDS011;65486;53.144;18.134;2022-12-18T12:41:08;26.70;;;8.90;;
76597;SDS011;65486;53.144;18.134;2022-12-18T12:44:02;37.30;;;12.50;;
76597;SDS011;65486;53.144;18.134;2022-12-18T12:46:35;56.60;;;16.90;;
76597;SDS011;65486;53.144;18.134;2022-12-18T12:49:15;79.80;;;19.90;;
76597;SDS011;65486;53.144;18.134;2022-12-18T12:51:45;71.50;;;19.70;;
76597;SDS011;65486;53.144;18.134;2022-12-18T12:54:39;62.40;;;18.90;;
76597;SDS011;65486;53.144;18.134;2022-12-18T13:00:09;35.60;;;10.50;;
76597;SDS011;65486;53.144;18.134;2022-12-18T13:03:06;40.40;;;13.10;;
76597;SDS011;65486;53.144;18.134;2022-12-18T13:06:16;45.50;;;14.30;;
76597;SDS011;65486;53.144;18.134;2022-12-18T13:08:51;51.10;;;16.80;;
76597;SDS011;65486;53.144;18.134;2022-12-18T13:11:41;32.80;;;10.30;;
76597;SDS011;65486;53.144;18.134;2022-12-18T13:14:32;64.00;;;16.10;;
76597;SDS011;65486;53.144;18.134;2022-12-18T13:17:14;80.70;;;22.00;;
76597;SDS011;65486;53.144;18.134;2022-12-18T13:22:48;41.80;;;10.70;;
76597;SDS011;65486;53.144;18.134;2022-12-18T13:25:38;31.20;;;8.70;;
76597;SDS011;65486;53.144;18.134;2022-12-18T13:28:48;44.60;;;15.60;;
76597;SDS011;65486;53.144;18.134;2022-12-18T13:34:32;41.10;;;13.10;;
76597;SDS011;65486;53.144;18.134;2022-12-18T13:43:15;73.90;;;20.60;;
76597;SDS011;65486;53.144;18.134;2022-12-18T13:45:49;77.10;;;21.20;;
76597;SDS011;65486;53.144;18.134;2022-12-18T13:48:26;61.90;;;17.00;;
76597;SDS011;65486;53.144;18.134;2022-12-18T13:51:00;45.80;;;13.20;;
76597;SDS011;65486;53.144;18.134;2022-12-18T13:54:34;21.40;;;6.70;;
76597;SDS011;65486;53.144;18.134;2022-12-18T13:57:04;39.80;;;13.30;;
76597;SDS011;65486;53.144;18.134;2022-12-18T13:59:34;51.80;;;15.80;;
76597;SDS011;65486;53.144;18.134;2022-12-18T14:02:22;70.20;;;19.90;;
76597;SDS011;65486;53.144;18.134;2022-12-18T14:04:52;70.80;;;19.10;;
76597;SDS011;65486;53.144;18.134;2022-12-18T14:07:21;66.50;;;19.10;;
76597;SDS011;65486;53.144;18.134;2022-12-18T14:09:52;50.60;;;15.20;;
76597;SDS011;65486;53.144;18.134;2022-12-18T14:17:54;41.50;;;12.10;;
76597;SDS011;65486;53.144;18.134;2022-12-18T14:20:25;46.70;;;15.00;;
76597;SDS011;65486;53.144;18.134;2022-12-18T14:22:55;72.10;;;18.80;;
76597;SDS011;65486;53.144;18.134;2022-12-18T14:25:25;79.90;;;21.60;;
76597;SDS011;65486;53.144;18.134;2022-12-18T14:28:14;86.30;;;21.00;;
76597;SDS011;65486;53.144;18.134;2022-12-18T14:30:44;68.40;;;19.20;;
76597;SDS011;65486;53.144;18.134;2022-12-18T14:33:19;61.10;;;17.70;;
76597;SDS011;65486;53.144;18.134;2022-12-18T14:35:57;52.20;;;15.80;;
76597;SDS011;65486;53.144;18.134;2022-12-18T14:38:37;53.10;;;16.40;;
76597;SDS011;65486;53.144;18.134;2022-12-18T14:41:10;57.90;;;17.10;;
76597;SDS011;65486;53.144;18.134;2022-12-18T14:43:39;49.40;;;16.00;;
76597;SDS011;65486;53.144;18.134;2022-12-18T14:49:21;66.70;;;17.10;;
76597;SDS011;65486;53.144;18.134;2022-12-18T14:52:27;73.80;;;19.60;;
76597;SDS011;65486;53.144;18.134;2022-12-18T14:54:58;86.70;;;21.30;;
76597;SDS011;65486;53.144;18.134;2022-12-18T14:57:32;96.90;;;21.50;;
76597;SDS011;65486;53.144;18.134;2022-12-18T15:02:34;53.20;;;15.30;;
76597;SDS011;65486;53.144;18.134;2022-12-18T15:05:48;38.10;;;11.50;;
76597;SDS011;65486;53.144;18.134;2022-12-18T15:07:57;56.40;;;16.20;;
76597;SDS011;65486;53.144;18.134;2022-12-18T15:10:35;48.20;;;14.20;;
76597;SDS011;65486;53.144;18.134;2022-12-18T15:13:23;80.40;;;22.00;;
76597;SDS011;65486;53.144;18.134;2022-12-18T15:15:52;106.80;;;22.70;;
76597;SDS011;65486;53.144;18.134;2022-12-18T15:18:21;102.80;;;22.00;;
76597;SDS011;65486;53.144;18.134;2022-12-18T15:21:09;77.80;;;21.30;;
76597;SDS011;65486;53.144;18.134;2022-12-18T15:23:44;67.00;;;19.20;;
76597;SDS011;65486;53.144;18.134;2022-12-18T15:26:13;60.50;;;16.40;;
76597;SDS011;65486;53.144;18.134;2022-12-18T15:28:51;41.50;;;12.50;;
76597;SDS011;65486;53.144;18.134;2022-12-18T15:31:32;33.10;;;9.40;;
76597;SDS011;65486;53.144;18.134;2022-12-18T15:34:12;58.50;;;16.20;;
76597;SDS011;65486;53.144;18.134;2022-12-18T15:37:24;52.10;;;16.00;;
76597;SDS011;65486;53.144;18.134;2022-12-18T15:40:13;72.10;;;18.90;;
76597;SDS011;65486;53.144;18.134;2022-12-18T15:42:44;77.50;;;19.90;;
76597;SDS011;65486;53.144;18.134;2022-12-18T15:45:31;52.10;;;13.30;;
76597;SDS011;65486;53.144;18.134;2022-12-18T15:47:59;67.80;;;17.20;;
76597;SDS011;65486;53.144;18.134;2022-12-18T15:50:26;41.70;;;10.70;;
76597;SDS011;65486;53.144;18.134;2022-12-18T15:52:56;32.60;;;9.80;;
76597;SDS011;65486;53.144;18.134;2022-12-18T15:55:23;48.80;;;14.10;;
76597;SDS011;65486;53.144;18.134;2022-12-18T15:58:10;13.60;;;4.10;;
76597;SDS011;65486;53.144;18.134;2022-12-18T16:00:38;69.90;;;16.00;;
76597;SDS011;65486;53.144;18.134;2022-12-18T16:03:09;79.60;;;20.10;;
76597;SDS011;65486;53.144;18.134;2022-12-18T16:05:36;77.30;;;19.30;;
76597;SDS011;65486;53.144;18.134;2022-12-18T16:08:03;42.10;;;11.80;;
76597;SDS011;65486;53.144;18.134;2022-12-18T16:10:31;64.50;;;17.20;;
76597;SDS011;65486;53.144;18.134;2022-12-18T16:12:59;56.70;;;15.30;;
76597;SDS011;65486;53.144;18.134;2022-12-18T16:15:28;33.80;;;9.30;;
76597;SDS011;65486;53.144;18.134;2022-12-18T16:17:55;36.40;;;10.70;;
76597;SDS011;65486;53.144;18.134;2022-12-18T16:20:22;76.10;;;20.30;;
76597;SDS011;65486;53.144;18.134;2022-12-18T16:22:52;81.20;;;18.50;;
76597;SDS011;65486;53.144;18.134;2022-12-18T16:25:24;62.80;;;16.10;;
76597;SDS011;65486;53.144;18.134;2022-12-18T16:27:54;80.20;;;19.50;;
76597;SDS011;65486;53.144;18.134;2022-12-18T16:30:23;48.10;;;14.10;;
76597;SDS011;65486;53.144;18.134;2022-12-18T16:32:57;66.40;;;18.10;;
76597;SDS011;65486;53.144;18.134;2022-12-18T16:35:28;42.50;;;13.00;;
76597;SDS011;65486;53.144;18.134;2022-12-18T16:38:24;61.90;;;18.30;;
76597;SDS011;65486;53.144;18.134;2022-12-18T16:41:05;18.10;;;5.20;;
76597;SDS011;65486;53.144;18.134;2022-12-18T16:44:00;72.40;;;19.40;;